createdAt,value
2018-05-19T00:00:16.901Z,0
2018-05-19T00:01:18.594Z,0
2018-05-19T00:02:20.528Z,0
2018-05-19T00:03:22.272Z,0
2018-05-19T00:04:24.229Z,0
2018-05-19T00:05:26.178Z,0
2018-05-19T00:06:27.876Z,0
2018-05-19T00:07:30.003Z,0
2018-05-19T00:08:31.960Z,0
2018-05-19T00:09:34.067Z,0
2018-05-19T00:10:35.985Z,0
2018-05-19T00:11:37.751Z,0
2018-05-19T00:12:39.450Z,0
2018-05-19T00:13:41.634Z,0
2018-05-19T00:14:43.332Z,0
2018-05-19T00:15:45.006Z,0
2018-05-19T00:16:46.785Z,0
2018-05-19T00:17:48.606Z,0
2018-05-19T00:18:50.349Z,0
2018-05-19T00:19:52.057Z,0
2018-05-19T00:20:53.914Z,0
2018-05-19T00:21:55.504Z,0
2018-05-19T00:22:57.231Z,0
2018-05-19T00:23:59.300Z,0
2018-05-19T00:25:01.041Z,0
2018-05-19T00:26:02.750Z,0
2018-05-19T00:27:04.910Z,0
2018-05-19T00:28:06.596Z,0
2018-05-19T00:29:08.333Z,0
2018-05-19T00:30:10.298Z,0
2018-05-19T00:31:12.228Z,0
2018-05-19T00:32:13.961Z,0
2018-05-19T00:33:15.602Z,0
2018-05-19T00:34:17.309Z,0
2018-05-19T00:35:19.995Z,0
2018-05-19T00:36:21.523Z,0
2018-05-19T00:37:23.210Z,0
2018-05-19T00:38:25.324Z,0
2018-05-19T00:39:27.068Z,0
2018-05-19T00:40:28.737Z,0
2018-05-19T00:41:30.468Z,0
2018-05-19T00:42:32.146Z,0
2018-05-19T00:43:34.111Z,0
2018-05-19T00:44:36.177Z,0
2018-05-19T00:45:38.041Z,0
2018-05-19T00:46:39.951Z,0
2018-05-19T00:47:41.905Z,0
2018-05-19T00:48:43.718Z,0
2018-05-19T00:49:45.521Z,0
2018-05-19T00:50:47.200Z,0
2018-05-19T00:51:48.925Z,0
2018-05-19T00:52:50.728Z,0
2018-05-19T00:53:52.764Z,0
2018-05-19T00:54:54.593Z,0
2018-05-19T00:55:56.347Z,0
2018-05-19T00:56:58.057Z,0
2018-05-19T00:57:59.745Z,0
2018-05-19T00:59:01.459Z,0
2018-05-19T01:00:03.382Z,0
2018-05-19T01:01:05.056Z,0
2018-05-19T01:02:06.815Z,0
2018-05-19T01:03:08.525Z,0
2018-05-19T01:04:10.207Z,0
2018-05-19T01:05:12.247Z,0
2018-05-19T01:06:14.317Z,0
2018-05-19T01:07:15.925Z,0
2018-05-19T01:08:17.595Z,0
2018-05-19T01:09:19.701Z,0
2018-05-19T01:10:21.338Z,0
2018-05-19T01:11:23.008Z,0
2018-05-19T01:12:24.938Z,0
2018-05-19T01:13:26.706Z,0
2018-05-19T01:14:28.920Z,0
2018-05-19T01:15:31.056Z,0
2018-05-19T01:16:33.117Z,0
2018-05-19T01:17:35.179Z,0
2018-05-19T01:18:36.914Z,0
2018-05-19T01:19:38.670Z,0
2018-05-19T01:20:40.411Z,0
2018-05-19T01:21:42.385Z,0
2018-05-19T01:22:43.997Z,0
2018-05-19T01:23:45.658Z,0
2018-05-19T01:24:47.493Z,0
2018-05-19T01:25:49.601Z,0
2018-05-19T01:26:51.306Z,0
2018-05-19T01:27:53.401Z,0
2018-05-19T01:28:55.412Z,0
2018-05-19T01:29:57.084Z,0
2018-05-19T01:30:59.070Z,0
2018-05-19T01:32:01.226Z,0
2018-05-19T01:33:02.884Z,0
2018-05-19T01:34:04.563Z,0
2018-05-19T01:35:06.480Z,0
2018-05-19T01:36:08.207Z,0
2018-05-19T01:37:09.928Z,0
2018-05-19T01:38:11.652Z,0
2018-05-19T01:39:13.714Z,0
2018-05-19T01:40:15.523Z,0
2018-05-19T01:41:17.194Z,0
2018-05-19T01:42:19.388Z,0
2018-05-19T01:43:21.167Z,0
2018-05-19T01:44:22.944Z,0
2018-05-19T01:45:24.858Z,0
2018-05-19T01:46:26.777Z,0
2018-05-19T01:47:28.753Z,0
2018-05-19T01:48:30.978Z,0
2018-05-19T01:49:32.623Z,0
2018-05-19T01:50:34.544Z,0
2018-05-19T01:51:36.207Z,0
2018-05-19T01:52:37.932Z,0
2018-05-19T01:53:39.724Z,0
2018-05-19T01:54:41.362Z,0
2018-05-19T01:55:43.132Z,0
2018-05-19T01:56:44.828Z,0
2018-05-19T01:57:46.804Z,0
2018-05-19T01:58:48.492Z,0
2018-05-19T01:59:50.792Z,0
2018-05-19T02:00:52.766Z,0
2018-05-19T02:01:54.836Z,0
2018-05-19T02:02:56.530Z,0
2018-05-19T02:03:58.206Z,0
2018-05-19T02:04:59.965Z,0
2018-05-19T02:06:01.680Z,0
2018-05-19T02:07:03.407Z,0
2018-05-19T02:08:05.616Z,0
2018-05-19T02:09:07.291Z,0
2018-05-19T02:10:09.085Z,0
2018-05-19T02:11:10.825Z,0
2018-05-19T02:12:12.557Z,0
2018-05-19T02:13:14.771Z,0
2018-05-19T02:14:16.936Z,0
2018-05-19T02:15:18.604Z,0
2018-05-19T02:16:20.313Z,0
2018-05-19T02:17:22.366Z,0
2018-05-19T02:18:24.304Z,0
2018-05-19T02:19:26.042Z,0
2018-05-19T02:20:28.093Z,0
2018-05-19T02:21:30.248Z,0
2018-05-19T02:22:31.839Z,0
2018-05-19T02:23:33.586Z,0
2018-05-19T02:24:35.336Z,0
2018-05-19T02:25:36.982Z,0
2018-05-19T02:26:38.975Z,0
2018-05-19T02:27:40.651Z,0
2018-05-19T02:28:42.822Z,0
2018-05-19T02:29:44.957Z,0
2018-05-19T02:30:47.145Z,0
2018-05-19T02:31:48.827Z,0
2018-05-19T02:32:50.954Z,0
2018-05-19T02:33:52.653Z,0
2018-05-19T02:34:54.607Z,0
2018-05-19T02:35:56.301Z,0
2018-05-19T02:36:58.071Z,0
2018-05-19T02:38:00.095Z,0
2018-05-19T02:39:01.813Z,0
2018-05-19T02:40:03.722Z,0
2018-05-19T02:41:05.459Z,0
2018-05-19T02:42:07.165Z,0
2018-05-19T02:43:09.429Z,0
2018-05-19T02:44:11.089Z,0
2018-05-19T02:45:13.171Z,0
2018-05-19T02:46:15.246Z,0
2018-05-19T02:47:17.066Z,0
2018-05-19T02:48:19.190Z,0
2018-05-19T02:49:21.431Z,0
2018-05-19T02:50:23.408Z,0
2018-05-19T02:51:25.135Z,0
2018-05-19T02:52:27.344Z,0
2018-05-19T02:53:29.594Z,0
2018-05-19T02:54:31.299Z,4
2018-05-19T02:55:33.399Z,4
2018-05-19T02:56:35.344Z,4
2018-05-19T02:57:37.312Z,0
2018-05-19T02:58:39.000Z,4
2018-05-19T02:59:40.965Z,4
2018-05-19T03:00:43.103Z,4
2018-05-19T03:01:45.255Z,4
2018-05-19T03:02:47.184Z,8
2018-05-19T03:03:49.321Z,8
2018-05-19T03:04:51.005Z,8
2018-05-19T03:05:52.776Z,12
2018-05-19T03:06:54.663Z,12
2018-05-19T03:07:56.342Z,12
2018-05-19T03:08:58.552Z,16
2018-05-19T03:10:00.204Z,16
2018-05-19T03:11:02.318Z,16
2018-05-19T03:12:04.303Z,24
2018-05-19T03:13:06.011Z,24
2018-05-19T03:14:07.696Z,28
2018-05-19T03:15:09.682Z,32
2018-05-19T03:16:11.446Z,36
2018-05-19T03:17:13.464Z,40
2018-05-19T03:18:15.115Z,48
2018-05-19T03:19:16.850Z,52
2018-05-19T03:20:18.746Z,56
2018-05-19T03:21:20.469Z,64
2018-05-19T03:22:22.689Z,72
2018-05-19T03:23:24.412Z,80
2018-05-19T03:24:26.176Z,92
2018-05-19T03:25:27.861Z,100
2018-05-19T03:26:29.907Z,108
2018-05-19T03:27:32.115Z,120
2018-05-19T03:28:34.127Z,132
2018-05-19T03:29:36.274Z,148
2018-05-19T03:30:37.951Z,156
2018-05-19T03:31:39.925Z,172
2018-05-19T03:32:41.889Z,188
2018-05-19T03:33:43.632Z,204
2018-05-19T03:34:45.366Z,220
2018-05-19T03:35:47.140Z,240
2018-05-19T03:36:49.136Z,256
2018-05-19T03:37:51.147Z,272
2018-05-19T03:38:53.213Z,296
2018-05-19T03:39:55.153Z,316
2018-05-19T03:40:57.121Z,340
2018-05-19T03:41:58.811Z,360
2018-05-19T03:43:01.054Z,388
2018-05-19T03:44:03.123Z,412
2018-05-19T03:45:04.839Z,436
2018-05-19T03:46:06.537Z,464
2018-05-19T03:47:08.681Z,492
2018-05-19T03:48:10.690Z,520
2018-05-19T03:49:12.445Z,544
2018-05-19T03:50:14.171Z,576
2018-05-19T03:51:16.160Z,608
2018-05-19T03:52:18.077Z,636
2018-05-19T03:53:19.760Z,668
2018-05-19T03:54:21.511Z,700
2018-05-19T03:55:23.685Z,732
2018-05-19T03:56:25.947Z,764
2018-05-19T03:57:27.666Z,796
2018-05-19T03:58:29.778Z,832
2018-05-19T03:59:31.455Z,872
2018-05-19T04:00:33.188Z,908
2018-05-19T04:01:34.998Z,948
2018-05-19T04:02:37.171Z,996
2018-05-19T04:03:38.841Z,1036
2018-05-19T04:04:40.821Z,1080
2018-05-19T04:05:42.571Z,1128
2018-05-19T04:06:44.681Z,1176
2018-05-19T04:07:46.878Z,1224
2018-05-19T04:08:49.119Z,1268
2018-05-19T04:09:50.841Z,1316
2018-05-19T04:10:52.533Z,1364
2018-05-19T04:11:54.361Z,1412
2018-05-19T04:12:56.421Z,1456
2018-05-19T04:13:58.124Z,1504
2018-05-19T04:14:59.839Z,1548
2018-05-19T04:16:01.805Z,1596
2018-05-19T04:17:03.799Z,1644
2018-05-19T04:18:05.521Z,1688
2018-05-19T04:19:07.257Z,1736
2018-05-19T04:20:09.010Z,1784
2018-05-19T04:21:11.189Z,1832
2018-05-19T04:22:13.153Z,1876
2018-05-19T04:23:14.833Z,1928
2018-05-19T04:24:16.853Z,1980
2018-05-19T04:25:18.897Z,2032
2018-05-19T04:26:20.571Z,2080
2018-05-19T04:27:22.488Z,2132
2018-05-19T04:28:24.616Z,2184
2018-05-19T04:29:26.290Z,2244
2018-05-19T04:30:28.291Z,2304
2018-05-19T04:31:30.043Z,2364
2018-05-19T04:32:32.145Z,2408
2018-05-19T04:33:34.468Z,2460
2018-05-19T04:34:36.184Z,2516
2018-05-19T04:35:37.931Z,2568
2018-05-19T04:36:39.717Z,2628
2018-05-19T04:37:41.395Z,2700
2018-05-19T04:38:43.433Z,2772
2018-05-19T04:39:45.103Z,2844
2018-05-19T04:40:46.813Z,2904
2018-05-19T04:41:48.488Z,2964
2018-05-19T04:42:50.860Z,3020
2018-05-19T04:43:52.717Z,3076
2018-05-19T04:44:54.471Z,3144
2018-05-19T04:45:56.677Z,3212
2018-05-19T04:46:58.311Z,3268
2018-05-19T04:48:00.117Z,3324
2018-05-19T04:49:02.361Z,3356
2018-05-19T04:50:04.362Z,3360
2018-05-19T04:51:06.291Z,3420
2018-05-19T04:52:07.983Z,3488
2018-05-19T04:53:09.944Z,3600
2018-05-19T04:54:11.758Z,3736
2018-05-19T04:55:13.781Z,3860
2018-05-19T04:56:15.833Z,3956
2018-05-19T04:57:17.946Z,4076
2018-05-19T04:58:19.992Z,4224
2018-05-19T04:59:21.743Z,4360
2018-05-19T05:00:23.711Z,4520
2018-05-19T05:01:25.386Z,4776
2018-05-19T05:02:27.379Z,5168
2018-05-19T05:03:29.423Z,5468
2018-05-19T05:04:31.575Z,5700
2018-05-19T05:05:33.583Z,5856
2018-05-19T05:06:35.590Z,5988
2018-05-19T05:07:37.801Z,6100
2018-05-19T05:08:39.670Z,6192
2018-05-19T05:09:41.479Z,6156
2018-05-19T05:10:43.701Z,6016
2018-05-19T05:11:45.342Z,5848
2018-05-19T05:12:47.022Z,5700
2018-05-19T05:13:49.106Z,5516
2018-05-19T05:14:51.238Z,5464
2018-05-19T05:15:53.313Z,5412
2018-05-19T05:16:55.361Z,5512
2018-05-19T05:17:57.099Z,5616
2018-05-19T05:18:59.259Z,5620
2018-05-19T05:20:01.402Z,5548
2018-05-19T05:21:03.311Z,5508
2018-05-19T05:22:04.966Z,5524
2018-05-19T05:23:07.015Z,5608
2018-05-19T05:24:08.715Z,5672
2018-05-19T05:25:10.815Z,5720
2018-05-19T05:26:12.673Z,5760
2018-05-19T05:27:14.450Z,5792
2018-05-19T05:28:16.400Z,5864
2018-05-19T05:29:18.570Z,5920
2018-05-19T05:30:20.348Z,6012
2018-05-19T05:31:22.021Z,6108
2018-05-19T05:32:23.728Z,6156
2018-05-19T05:33:25.459Z,6176
2018-05-19T05:34:27.171Z,6168
2018-05-19T05:35:29.061Z,6120
2018-05-19T05:36:30.834Z,6128
2018-05-19T05:37:32.975Z,6216
2018-05-19T05:38:34.622Z,6320
2018-05-19T05:39:36.408Z,6384
2018-05-19T05:40:38.498Z,6464
2018-05-19T05:41:40.225Z,6588
2018-05-19T05:42:42.224Z,6756
2018-05-19T05:43:44.374Z,6900
2018-05-19T05:44:46.431Z,7012
2018-05-19T05:45:48.240Z,7100
2018-05-19T05:46:50.172Z,7192
2018-05-19T05:47:52.731Z,7284
2018-05-19T05:48:55.120Z,7312
2018-05-19T05:49:56.899Z,7368
2018-05-19T05:50:58.697Z,7456
2018-05-19T05:52:00.419Z,7580
2018-05-19T05:53:02.301Z,7708
2018-05-19T05:54:04.123Z,7824
2018-05-19T05:55:06.058Z,7928
2018-05-19T05:56:07.896Z,8036
2018-05-19T05:57:09.703Z,8152
2018-05-19T05:58:11.614Z,8280
2018-05-19T05:59:13.291Z,8364
2018-05-19T06:00:15.093Z,8380
2018-05-19T06:01:16.896Z,8456
2018-05-19T06:02:18.614Z,8508
2018-05-19T06:03:20.516Z,8696
2018-05-19T06:04:22.430Z,8852
2018-05-19T06:05:24.282Z,9000
2018-05-19T06:06:26.128Z,9288
2018-05-19T06:07:27.996Z,8940
2018-05-19T06:08:29.767Z,8696
2018-05-19T06:09:31.687Z,8556
2018-05-19T06:10:33.551Z,8492
2018-05-19T06:11:35.396Z,8512
2018-05-19T06:12:37.104Z,8552
2018-05-19T06:13:39.099Z,8612
2018-05-19T06:14:40.887Z,8672
2018-05-19T06:15:42.637Z,8748
2018-05-19T06:16:44.333Z,8888
2018-05-19T06:17:46.200Z,9072
2018-05-19T06:18:48.079Z,9224
2018-05-19T06:19:49.672Z,9304
2018-05-19T06:20:51.519Z,9288
2018-05-19T06:21:53.488Z,9160
2018-05-19T06:22:55.282Z,8960
2018-05-19T06:23:56.861Z,8748
2018-05-19T06:24:58.735Z,8572
2018-05-19T06:26:00.406Z,8452
2018-05-19T06:27:02.143Z,8420
2018-05-19T06:28:04.049Z,8472
2018-05-19T06:29:05.888Z,8544
2018-05-19T06:30:07.730Z,8612
2018-05-19T06:31:09.610Z,8716
2018-05-19T06:32:11.424Z,8872
2018-05-19T06:33:13.193Z,9084
2018-05-19T06:34:15.011Z,9360
2018-05-19T06:35:16.981Z,9616
2018-05-19T06:36:18.814Z,9908
2018-05-19T06:37:20.819Z,10276
2018-05-19T06:38:22.620Z,10732
2018-05-19T06:39:24.532Z,11204
2018-05-19T06:40:26.365Z,11624
2018-05-19T06:41:28.114Z,11936
2018-05-19T06:42:29.979Z,12204
2018-05-19T06:43:31.844Z,12448
2018-05-19T06:44:33.897Z,12632
2018-05-19T06:45:35.712Z,12840
2018-05-19T06:46:37.583Z,13076
2018-05-19T06:47:39.348Z,13348
2018-05-19T06:48:41.222Z,13504
2018-05-19T06:49:43.119Z,13620
2018-05-19T06:50:44.824Z,13748
2018-05-19T06:51:46.578Z,13920
2018-05-19T06:52:48.175Z,14492
2018-05-19T06:53:49.989Z,14952
2018-05-19T06:54:51.874Z,14980
2018-05-19T06:55:53.682Z,15008
2018-05-19T06:56:55.636Z,15296
2018-05-19T06:57:57.410Z,15360
2018-05-19T06:58:59.166Z,15872
2018-05-19T07:00:01.015Z,16544
2018-05-19T07:01:02.875Z,17088
2018-05-19T07:02:04.696Z,16896
2018-05-19T07:03:06.462Z,16576
2018-05-19T07:04:08.256Z,18400
2018-05-19T07:05:10.085Z,17280
2018-05-19T07:06:11.777Z,17024
2018-05-19T07:07:13.618Z,17184
2018-05-19T07:08:15.424Z,18592
2018-05-19T07:09:17.256Z,23200
2018-05-19T07:10:19.051Z,31392
2018-05-19T07:11:20.844Z,20320
2018-05-19T07:12:22.665Z,21408
2018-05-19T07:13:24.447Z,20608
2018-05-19T07:14:26.259Z,21600
2018-05-19T07:15:28.075Z,26080
2018-05-19T07:16:29.925Z,30496
2018-05-19T07:17:31.693Z,30560
2018-05-19T07:18:33.588Z,31104
2018-05-19T07:19:35.400Z,30912
2018-05-19T07:20:37.183Z,31872
2018-05-19T07:21:39.050Z,28736
2018-05-19T07:22:40.757Z,21760
2018-05-19T07:23:42.769Z,22400
2018-05-19T07:24:45.097Z,25952
2018-05-19T07:25:47.418Z,24768
2018-05-19T07:26:49.478Z,28160
2018-05-19T07:27:51.638Z,24960
2018-05-19T07:28:53.612Z,25248
2018-05-19T07:29:55.614Z,23968
2018-05-19T07:30:57.224Z,23776
2018-05-19T07:31:59.257Z,21600
2018-05-19T07:33:01.070Z,21024
2018-05-19T07:34:02.952Z,20352
2018-05-19T07:35:04.709Z,19680
2018-05-19T07:36:06.521Z,19904
2018-05-19T07:37:08.283Z,20384
2018-05-19T07:38:10.054Z,20672
2018-05-19T07:39:11.873Z,24768
2018-05-19T07:40:13.662Z,25920
2018-05-19T07:41:15.498Z,21600
2018-05-19T07:42:17.823Z,22272
2018-05-19T07:43:19.525Z,21696
2018-05-19T07:44:21.206Z,21600
2018-05-19T07:45:23.651Z,26080
2018-05-19T07:46:25.489Z,32384
2018-05-19T07:47:27.411Z,34304
2018-05-19T07:48:29.638Z,33728
2018-05-19T07:49:31.452Z,25312
2018-05-19T07:50:34.016Z,25696
2018-05-19T07:51:35.781Z,24768
2018-05-19T07:52:37.971Z,24448
2018-05-19T07:53:39.918Z,29120
2018-05-19T07:54:42.164Z,32640
2018-05-19T07:55:43.993Z,25920
2018-05-19T07:56:45.858Z,24416
2018-05-19T07:57:47.745Z,25568
2018-05-19T07:58:50.101Z,24256
2018-05-19T07:59:52.492Z,21440
2018-05-19T08:00:54.266Z,20032
2018-05-19T08:01:56.098Z,19328
2018-05-19T08:02:57.971Z,20000
2018-05-19T08:04:00.182Z,24768
2018-05-19T08:05:02.406Z,26304
2018-05-19T08:06:04.235Z,26848
2018-05-19T08:07:06.202Z,27296
2018-05-19T08:08:08.567Z,24160
2018-05-19T08:09:10.387Z,19744
2018-05-19T08:10:12.520Z,17792
2018-05-19T08:11:14.886Z,17088
2018-05-19T08:12:17.104Z,17184
2018-05-19T08:13:19.345Z,18048
2018-05-19T08:14:22.024Z,22336
2018-05-19T08:15:24.013Z,23392
2018-05-19T08:16:25.789Z,19616
2018-05-19T08:17:27.679Z,21312
2018-05-19T08:18:29.557Z,22528
2018-05-19T08:19:31.507Z,22240
2018-05-19T08:20:34.056Z,23168
2018-05-19T08:21:36.822Z,23488
2018-05-19T08:22:39.128Z,23744
2018-05-19T08:23:41.026Z,24128
2018-05-19T08:24:43.264Z,24672
2018-05-19T08:25:45.763Z,25664
2018-05-19T08:26:48.040Z,26976
2018-05-19T08:27:51.187Z,28288
2018-05-19T08:28:53.727Z,28576
2018-05-19T08:29:55.900Z,27904
2018-05-19T08:30:58.287Z,26880
2018-05-19T08:32:01.104Z,26592
2018-05-19T08:33:02.754Z,27104
2018-05-19T08:34:05.609Z,27616
2018-05-19T08:35:07.820Z,28320
2018-05-19T08:36:09.863Z,28832
2018-05-19T08:37:12.321Z,29024
2018-05-19T08:38:14.563Z,29024
2018-05-19T08:39:17.790Z,27968
2018-05-19T08:40:19.978Z,28928
2018-05-19T08:41:21.906Z,30112
2018-05-19T08:42:24.224Z,30784
2018-05-19T08:43:27.065Z,30880
2018-05-19T08:44:30.118Z,30624
2018-05-19T08:45:33.328Z,29664
2018-05-19T08:46:34.998Z,29408
2018-05-19T08:47:38.563Z,28288
2018-05-19T08:48:40.574Z,27264
2018-05-19T08:49:42.840Z,27040
2018-05-19T08:50:45.182Z,26464
2018-05-19T08:51:47.061Z,25952
2018-05-19T08:52:49.175Z,25504
2018-05-19T08:53:51.433Z,25248
2018-05-19T08:54:54.634Z,25504
2018-05-19T08:55:57.407Z,25920
2018-05-19T08:56:59.676Z,26240
2018-05-19T08:58:01.704Z,26912
2018-05-19T08:59:03.573Z,27520
2018-05-19T09:00:06.031Z,27776
2018-05-19T09:01:07.901Z,28320
2018-05-19T09:02:10.573Z,29120
2018-05-19T09:03:13.660Z,30720
2018-05-19T09:04:15.649Z,47424
2018-05-19T09:05:18.439Z,64320
2018-05-19T09:06:20.580Z,65120
2018-05-19T09:07:22.380Z,64608
2018-05-19T09:08:25.218Z,66848
2018-05-19T09:09:27.698Z,66528
2018-05-19T09:10:30.187Z,67424
2018-05-19T09:11:31.987Z,67808
2018-05-19T09:12:34.020Z,69216
2018-05-19T09:13:36.089Z,69152
2018-05-19T09:14:38.081Z,69536
2018-05-19T09:15:40.643Z,69856
2018-05-19T09:16:42.940Z,70336
2018-05-19T09:17:44.726Z,72000
2018-05-19T09:18:46.734Z,71168
2018-05-19T09:19:49.496Z,70624
2018-05-19T09:20:51.325Z,72640
2018-05-19T09:21:53.253Z,70976
2018-05-19T09:22:55.415Z,71104
2018-05-19T09:23:57.442Z,69792
2018-05-19T09:24:59.880Z,71264
2018-05-19T09:26:01.768Z,72352
2018-05-19T09:27:03.707Z,73920
2018-05-19T09:28:06.214Z,74688
2018-05-19T09:29:08.319Z,73952
2018-05-19T09:30:10.968Z,75104
2018-05-19T09:31:13.042Z,74624
2018-05-19T09:32:15.690Z,72768
2018-05-19T09:33:18.271Z,72416
2018-05-19T09:34:20.391Z,72320
2018-05-19T09:35:22.342Z,71776
2018-05-19T09:36:24.713Z,73408
2018-05-19T09:37:26.562Z,73920
2018-05-19T09:38:29.140Z,75712
2018-05-19T09:39:31.755Z,74400
2018-05-19T09:40:33.865Z,75424
2018-05-19T09:41:36.134Z,77088
2018-05-19T09:42:38.413Z,75680
2018-05-19T09:43:42.060Z,76000
2018-05-19T09:44:44.072Z,74624
2018-05-19T09:45:46.351Z,73600
2018-05-19T09:46:48.198Z,74400
2018-05-19T09:47:51.610Z,78464
2018-05-19T09:48:53.759Z,79328
2018-05-19T09:49:56.126Z,79776
2018-05-19T09:50:57.914Z,80160
2018-05-19T09:52:00.175Z,79808
2018-05-19T09:53:02.302Z,75904
2018-05-19T09:54:04.095Z,75616
2018-05-19T09:55:06.245Z,75936
2018-05-19T09:56:08.840Z,77088
2018-05-19T09:57:11.483Z,78400
2018-05-19T09:58:13.449Z,78880
2018-05-19T09:59:15.575Z,80288
2018-05-19T10:00:17.732Z,82976
2018-05-19T10:01:20.190Z,84448
2018-05-19T10:02:22.331Z,84064
2018-05-19T10:03:24.477Z,44384
2018-05-19T10:04:27.143Z,77120
2018-05-19T10:05:29.490Z,87040
2018-05-19T10:06:32.159Z,29440
2018-05-19T10:07:34.007Z,25920
2018-05-19T10:08:36.458Z,26272
2018-05-19T10:09:38.357Z,67200
2018-05-19T10:10:40.362Z,60736
2018-05-19T10:11:42.869Z,75744
2018-05-19T10:12:45.045Z,87520
2018-05-19T10:13:47.362Z,86560
2018-05-19T10:14:49.497Z,85664
2018-05-19T10:15:51.755Z,83392
2018-05-19T10:16:54.051Z,84384
2018-05-19T10:17:56.499Z,85984
2018-05-19T10:18:58.409Z,85888
2018-05-19T10:20:00.712Z,86336
2018-05-19T10:21:03.943Z,84960
2018-05-19T10:22:06.542Z,85088
2018-05-19T10:23:08.801Z,86880
2018-05-19T10:24:10.715Z,86752
2018-05-19T10:25:12.921Z,86208
2018-05-19T10:26:15.251Z,87328
2018-05-19T10:27:17.234Z,85728
2018-05-19T10:28:19.449Z,86752
2018-05-19T10:29:21.387Z,86080
2018-05-19T10:30:23.544Z,84096
2018-05-19T10:31:25.896Z,78784
2018-05-19T10:32:27.855Z,82816
2018-05-19T10:33:29.973Z,85056
2018-05-19T10:34:32.364Z,83488
2018-05-19T10:35:34.419Z,82912
2018-05-19T10:36:36.322Z,84864
2018-05-19T10:37:38.560Z,84608
2018-05-19T10:38:40.764Z,87552
2018-05-19T10:39:42.920Z,86080
2018-05-19T10:40:45.297Z,92096
2018-05-19T10:41:47.346Z,93408
2018-05-19T10:42:49.763Z,91680
2018-05-19T10:43:51.965Z,90976
2018-05-19T10:44:54.076Z,90624
2018-05-19T10:45:56.290Z,91232
2018-05-19T10:46:58.701Z,94688
2018-05-19T10:48:00.664Z,92096
2018-05-19T10:49:03.104Z,91488
2018-05-19T10:50:05.325Z,84000
2018-05-19T10:51:07.244Z,74048
2018-05-19T10:52:09.055Z,44320
2018-05-19T10:53:10.891Z,94048
2018-05-19T10:54:12.870Z,101376
2018-05-19T10:55:14.760Z,59296
2018-05-19T10:56:17.061Z,74912
2018-05-19T10:57:19.256Z,97344
2018-05-19T10:58:21.179Z,78272
2018-05-19T10:59:23.287Z,94016
2018-05-19T11:00:25.297Z,92704
2018-05-19T11:01:27.448Z,91648
2018-05-19T11:02:29.364Z,96288
2018-05-19T11:03:31.214Z,97088
2018-05-19T11:04:33.334Z,96000
2018-05-19T11:05:35.369Z,96448
2018-05-19T11:06:37.165Z,102208
2018-05-19T11:07:39.096Z,100320
2018-05-19T11:08:41.138Z,100192
2018-05-19T11:09:43.019Z,101472
2018-05-19T11:10:44.972Z,100160
2018-05-19T11:11:47.015Z,100416
2018-05-19T11:12:48.824Z,97536
2018-05-19T11:13:50.748Z,98688
2018-05-19T11:14:52.659Z,101376
2018-05-19T11:15:55.040Z,101344
2018-05-19T11:16:56.943Z,101056
2018-05-19T11:17:58.922Z,96864
2018-05-19T11:19:00.874Z,92704
2018-05-19T11:20:02.688Z,35136
2018-05-19T11:21:04.649Z,57344
2018-05-19T11:22:06.451Z,28768
2018-05-19T11:23:08.362Z,50560
2018-05-19T11:24:10.132Z,37472
2018-05-19T11:25:11.930Z,100576
2018-05-19T11:26:13.695Z,103072
2018-05-19T11:27:15.458Z,65856
2018-05-19T11:28:17.083Z,76832
2018-05-19T11:29:18.884Z,35456
2018-05-19T11:30:20.518Z,57376
2018-05-19T11:31:22.359Z,39008
2018-05-19T11:32:24.038Z,95680
2018-05-19T11:33:25.819Z,95200
2018-05-19T11:34:27.527Z,92928
2018-05-19T11:35:29.250Z,89760
2018-05-19T11:36:30.995Z,88896
2018-05-19T11:37:32.673Z,90848
2018-05-19T11:38:34.410Z,88640
2018-05-19T11:39:36.125Z,88864
2018-05-19T11:40:37.833Z,90368
2018-05-19T11:41:39.518Z,90560
2018-05-19T11:42:41.234Z,91744
2018-05-19T11:43:42.940Z,92960
2018-05-19T11:44:44.637Z,92608
2018-05-19T11:45:46.480Z,94752
2018-05-19T11:46:48.214Z,96192
2018-05-19T11:47:50.014Z,96288
2018-05-19T11:48:51.856Z,96512
2018-05-19T11:49:53.569Z,98528
2018-05-19T11:50:55.265Z,96736
2018-05-19T11:51:56.951Z,95552
2018-05-19T11:52:58.738Z,93984
2018-05-19T11:54:00.457Z,92896
2018-05-19T11:55:02.306Z,90592
2018-05-19T11:56:04.036Z,90080
2018-05-19T11:57:05.819Z,90848
2018-05-19T11:58:07.431Z,88224
2018-05-19T11:59:09.101Z,84384
2018-05-19T12:00:10.843Z,83776
2018-05-19T12:01:12.685Z,84800
2018-05-19T12:02:14.574Z,88992
2018-05-19T12:03:16.320Z,90080
2018-05-19T12:04:18.112Z,87680
2018-05-19T12:05:19.899Z,90656
2018-05-19T12:06:21.592Z,91264
2018-05-19T12:07:23.461Z,87008
2018-05-19T12:08:25.311Z,88352
2018-05-19T12:09:27.106Z,88384
2018-05-19T12:10:28.888Z,87488
2018-05-19T12:11:30.696Z,87232
2018-05-19T12:12:32.477Z,84544
2018-05-19T12:13:34.281Z,83616
2018-05-19T12:14:36.192Z,90080
2018-05-19T12:15:37.964Z,88736
2018-05-19T12:16:39.726Z,87104
2018-05-19T12:17:41.517Z,89024
2018-05-19T12:18:43.278Z,88352
2018-05-19T12:19:45.133Z,83424
2018-05-19T12:20:46.964Z,82624
2018-05-19T12:21:48.729Z,81824
2018-05-19T12:22:50.482Z,83840
2018-05-19T12:23:52.304Z,80384
2018-05-19T12:24:54.696Z,81152
2018-05-19T12:25:56.422Z,32160
2018-05-19T12:26:58.241Z,40352
2018-05-19T12:27:59.965Z,67040
2018-05-19T12:29:01.746Z,80384
2018-05-19T12:30:03.443Z,87136
2018-05-19T12:31:05.205Z,88096
2018-05-19T12:32:06.934Z,92288
2018-05-19T12:33:08.681Z,94496
2018-05-19T12:34:10.522Z,93760
2018-05-19T12:35:12.180Z,94304
2018-05-19T12:36:13.914Z,93792
2018-05-19T12:37:15.561Z,97856
2018-05-19T12:38:17.313Z,95872
2018-05-19T12:39:19.091Z,94304
2018-05-19T12:40:20.881Z,94944
2018-05-19T12:41:22.718Z,96384
2018-05-19T12:42:24.990Z,95456
2018-05-19T12:43:26.778Z,95360
2018-05-19T12:44:28.641Z,97696
2018-05-19T12:45:30.338Z,94784
2018-05-19T12:46:32.203Z,89984
2018-05-19T12:47:34.014Z,42464
2018-05-19T12:48:35.710Z,95232
2018-05-19T12:49:37.378Z,92992
2018-05-19T12:50:39.163Z,92736
2018-05-19T12:51:40.885Z,92416
2018-05-19T12:52:42.688Z,89760
2018-05-19T12:53:44.530Z,89504
2018-05-19T12:54:46.285Z,92352
2018-05-19T12:55:47.988Z,91808
2018-05-19T12:56:49.661Z,89248
2018-05-19T12:57:51.337Z,84640
2018-05-19T12:58:53.001Z,85856
2018-05-19T12:59:54.740Z,88192
2018-05-19T13:00:56.417Z,90944
2018-05-19T13:01:58.095Z,90016
2018-05-19T13:02:59.850Z,88672
2018-05-19T13:04:01.663Z,88448
2018-05-19T13:05:03.328Z,85472
2018-05-19T13:06:05.052Z,85600
2018-05-19T13:07:06.849Z,86528
2018-05-19T13:08:08.520Z,86592
2018-05-19T13:09:10.333Z,90816
2018-05-19T13:10:12.119Z,92544
2018-05-19T13:11:13.860Z,87968
2018-05-19T13:12:15.640Z,88416
2018-05-19T13:13:17.289Z,89888
2018-05-19T13:14:19.134Z,88256
2018-05-19T13:15:20.730Z,87456
2018-05-19T13:16:22.553Z,88672
2018-05-19T13:17:24.329Z,89056
2018-05-19T13:18:26.055Z,89408
2018-05-19T13:19:27.961Z,87520
2018-05-19T13:20:29.701Z,88768
2018-05-19T13:21:31.409Z,90272
2018-05-19T13:22:33.166Z,89088
2018-05-19T13:23:34.953Z,87264
2018-05-19T13:24:36.819Z,84864
2018-05-19T13:25:38.566Z,84512
2018-05-19T13:26:40.189Z,85664
2018-05-19T13:27:41.996Z,85344
2018-05-19T13:28:43.704Z,84192
2018-05-19T13:29:45.487Z,83808
2018-05-19T13:30:47.138Z,83008
2018-05-19T13:31:48.896Z,82112
2018-05-19T13:32:50.562Z,82432
2018-05-19T13:33:52.215Z,81056
2018-05-19T13:34:53.874Z,76448
2018-05-19T13:35:55.674Z,64096
2018-05-19T13:36:57.480Z,40992
2018-05-19T13:37:59.227Z,25088
2018-05-19T13:39:00.928Z,24128
2018-05-19T13:40:02.650Z,45376
2018-05-19T13:41:04.346Z,74944
2018-05-19T13:42:06.153Z,73344
2018-05-19T13:43:07.888Z,63296
2018-05-19T13:44:09.575Z,48448
2018-05-19T13:45:11.363Z,29792
2018-05-19T13:46:13.165Z,28608
2018-05-19T13:47:14.899Z,47776
2018-05-19T13:48:16.710Z,32704
2018-05-19T13:49:18.363Z,26272
2018-05-19T13:50:20.157Z,23328